KOSU/OSU METAR and TAF weather

Enter ICAO airport designator
Station Type Date Time Source
KOSU METAR 2020/01/19 22:53 UTC NOAA

KOSU 192253Z 28011KT 2SM -SN BKN018 OVC029 M10/M14 A3029 RMK AO2 SLP274 P0000 T11001144


Station Type Date Time Source
KOSU Decoded METAR 2020/01/19 22:53 UTC NOAA

OHIO STATE UNIVERSITY AIRPORT , OH, United States (KOSU) 40-05N 083-05W 280M
Jan 19, 2020 - 05:53 PM EST / 2020.01.19 2253 UTC
Wind: from the W (280 degrees) at 13 MPH (11 KT):0
Visibility: 2 mile(s):0
Sky conditions: overcast
Weather: light snow
Precipitation last hour: A trace
Temperature: 14.0 F (-10.0 C)
Windchill: 0 F (-18 C):1
Dew Point: 6.1 F (-14.4 C)
Relative Humidity: 70%
Pressure (altimeter): 30.29 in. Hg (1025 hPa)
ob: KOSU 192253Z 28011KT 2SM -SN BKN018 OVC029 M10/M14 A3029 RMK AO2 SLP274 P0000 T11001144
cycle: 23

Station Type Date Time Source
KOSU TAF UTC NOAA

Error!

Example: see airport list